Главная страница
METAR-TAF:

METAR-TAF

Аэропорты :

Яунде, Камерун

широта: 03-50N, долгота: 011-31E, высота над уровнем моря: 751 м

Текущие метеонаблюдения

Эта сводка был подготовлена 59 минут назад, в 07:00 UTC
Ветер 3 Узел от южный-юго-западный
Температура 22°C
Влажность 100%
Давление 1017 hPa
Видимость: 4000 м
Рассеянная облачность на высоте 600 фута
дымка

METAR: FKYS 140700Z 21003KT 4000 R19/1400V2000U BR BKN006 22/22 Q1017 NOSIG

Время: 08:59 (07:59 UTC)

Прогноз

Эта сводка был подготовлена 2 часа и 59 минут назад, в 05:00 UTC
Прогноз действительный с 14-го 06 UTC до 15-го 06 UTC
Ветер 5 Узел переменных направлений
Видимость: 2000 м
Рассеянная облачность на высоте 600 фута
дымка
изменения
С 14-го 07 UTC до 14-го 09 UTC
Видимость: 4000 м
Отдельные облака на высоте 1600 фута
мгла
изменения
С 14-го 16 UTC до 14-го 18 UTC
Видимость: 6000 м

TAF: FKYS 140500Z 1406/1506 VRB05KT 2000 BR BKN006 BECMG 1407/1409 4000 HZ SCT016 BECMG 1416/1418 6000 NSW

Метеонаблюдения и прогнозы для более 4000 аэропортов (сводки METAR и TAF).

Имеющиеся станции представлены на карте желтыми и красными точками.

Чтобы увидеть название станции, наведите на нее мышь.

Затем щелкните, чтобы увидеть метеонаблюдения и метеопрогнозы.

Управление картой: чтобы увеличить масштаб, щелкните зеленые кнопки с черным крестиком; чтобы уменьшить масштаб, щелкните зеленую кнопку с тире; для просмотра соседних карт щелкайте зеленые стрелки.


METAR-TAF: